createdAt,value
2023-02-06T00:00:57.188Z,4.80
2023-02-06T00:03:25.125Z,4.80
2023-02-06T00:06:00.001Z,4.80
2023-02-06T00:08:28.253Z,4.70
2023-02-06T00:10:56.178Z,4.70
2023-02-06T00:13:24.153Z,4.70
2023-02-06T00:15:52.152Z,4.70
2023-02-06T00:18:20.234Z,4.60
2023-02-06T00:20:48.308Z,4.60
2023-02-06T00:23:16.703Z,4.60
2023-02-06T00:25:44.878Z,4.60
2023-02-06T00:28:12.941Z,4.60
2023-02-06T00:30:40.989Z,4.60
2023-02-06T00:33:08.936Z,4.60
2023-02-06T00:35:37.191Z,4.60
2023-02-06T00:38:07.108Z,4.60
2023-02-06T00:40:35.104Z,4.60
2023-02-06T00:43:03.088Z,4.60
2023-02-06T00:45:31.076Z,4.60
2023-02-06T00:47:59.018Z,4.60
2023-02-06T00:50:27.176Z,4.60
2023-02-06T00:52:55.250Z,4.60
2023-02-06T00:55:23.278Z,4.60
2023-02-06T00:57:51.213Z,4.60
2023-02-06T01:00:19.460Z,4.60
2023-02-06T01:02:47.832Z,4.60
2023-02-06T01:05:15.821Z,4.60
2023-02-06T01:07:43.732Z,4.50
2023-02-06T01:10:12.066Z,4.50
2023-02-06T01:12:40.973Z,4.50
2023-02-06T01:15:10.929Z,4.40
2023-02-06T01:17:39.938Z,4.50
2023-02-06T01:20:09.536Z,4.50
2023-02-06T01:22:38.052Z,4.50
2023-02-06T01:25:06.269Z,4.50
2023-02-06T01:27:36.243Z,4.40
2023-02-06T01:30:05.380Z,4.50
2023-02-06T01:32:36.205Z,4.50
2023-02-06T01:35:05.172Z,4.40
2023-02-06T01:37:33.407Z,4.40
2023-02-06T01:40:01.475Z,4.40
2023-02-06T01:42:29.652Z,4.40
2023-02-06T01:45:36.444Z,4.40
2023-02-06T01:48:06.714Z,4.40
2023-02-06T01:50:36.335Z,4.40
2023-02-06T01:53:05.382Z,4.40
2023-02-06T01:55:35.441Z,4.40
2023-02-06T01:58:04.989Z,4.40
2023-02-06T02:00:33.186Z,4.40
2023-02-06T02:03:01.661Z,4.40
2023-02-06T02:05:33.482Z,4.40
2023-02-06T02:08:08.034Z,4.30
2023-02-06T02:10:36.151Z,4.40
2023-02-06T02:13:04.267Z,4.30
2023-02-06T02:15:55.064Z,4.30
2023-02-06T02:18:29.009Z,4.30
2023-02-06T02:21:00.153Z,4.30
2023-02-06T02:23:34.498Z,4.30
2023-02-06T02:26:14.544Z,4.20
2023-02-06T02:28:45.666Z,4.30
2023-02-06T02:31:20.533Z,4.30
2023-02-06T02:34:04.539Z,4.30
2023-02-06T02:36:40.964Z,4.30
2023-02-06T02:39:20.602Z,4.20
2023-02-06T02:41:54.977Z,4.20
2023-02-06T02:44:42.664Z,4.20
2023-02-06T02:47:12.385Z,4.20
2023-02-06T02:49:41.515Z,4.20
2023-02-06T02:52:09.452Z,4.20
2023-02-06T02:54:37.460Z,4.20
2023-02-06T02:57:10.000Z,4.20
2023-02-06T02:59:39.517Z,4.20
2023-02-06T03:02:11.957Z,4.20
2023-02-06T03:05:00.161Z,4.20
2023-02-06T03:07:34.540Z,4.20
2023-02-06T03:10:14.936Z,4.20
2023-02-06T03:12:58.260Z,4.20
2023-02-06T03:15:30.200Z,4.20
2023-02-06T03:18:01.699Z,4.20
2023-02-06T03:20:31.056Z,4.20
2023-02-06T03:22:59.819Z,4.20
2023-02-06T03:25:35.848Z,4.20
2023-02-06T03:28:05.807Z,4.20
2023-02-06T03:30:34.928Z,4.20
2023-02-06T03:33:06.338Z,4.20
2023-02-06T03:35:36.315Z,4.20
2023-02-06T03:38:05.367Z,4.20
2023-02-06T03:40:33.731Z,4.20
2023-02-06T03:43:03.590Z,4.20
2023-02-06T03:45:33.406Z,4.20
2023-02-06T03:48:03.519Z,4.20
2023-02-06T03:50:33.869Z,4.20
2023-02-06T03:53:02.664Z,4.20
2023-02-06T03:55:30.852Z,4.20
2023-02-06T03:58:05.652Z,4.20
2023-02-06T04:00:34.329Z,4.20
2023-02-06T04:03:02.420Z,4.20
2023-02-06T04:05:30.274Z,4.20
2023-02-06T04:07:58.336Z,4.20
2023-02-06T04:10:26.543Z,4.20
2023-02-06T04:12:54.651Z,4.20
2023-02-06T04:15:23.300Z,4.20
2023-02-06T04:18:00.476Z,4.20
2023-02-06T04:20:30.083Z,4.20
2023-02-06T04:22:58.724Z,4.20
2023-02-06T04:25:26.796Z,4.20
2023-02-06T04:27:54.804Z,4.20
2023-02-06T04:30:22.914Z,4.20
2023-02-06T04:32:50.993Z,4.20
2023-02-06T04:35:18.992Z,4.20
2023-02-06T04:37:47.009Z,4.20
2023-02-06T04:40:14.980Z,4.20
2023-02-06T04:42:42.903Z,4.20
2023-02-06T04:45:11.045Z,4.20
2023-02-06T04:47:39.041Z,4.20
2023-02-06T04:50:07.442Z,4.20
2023-02-06T04:52:35.340Z,4.20
2023-02-06T04:55:03.194Z,4.20
2023-02-06T04:57:31.349Z,4.20
2023-02-06T04:59:59.250Z,4.20
2023-02-06T05:02:30.390Z,4.10
2023-02-06T05:04:58.342Z,4.20
2023-02-06T05:07:26.267Z,4.10
2023-02-06T05:09:54.140Z,4.10
2023-02-06T05:12:22.319Z,4.20
2023-02-06T05:14:50.357Z,4.20
2023-02-06T05:17:18.348Z,4.20
2023-02-06T05:19:46.172Z,4.20
2023-02-06T05:22:14.186Z,4.20
2023-02-06T05:24:42.164Z,4.10
2023-02-06T05:27:10.081Z,4.10
2023-02-06T05:29:38.219Z,4.10
2023-02-06T05:32:06.090Z,4.10
2023-02-06T05:34:34.159Z,4.10
2023-02-06T05:37:02.022Z,4.10
2023-02-06T05:39:30.002Z,4.10
2023-02-06T05:41:57.980Z,4.10
2023-02-06T05:44:25.830Z,4.10
2023-02-06T05:46:53.915Z,4.20
2023-02-06T05:49:22.030Z,4.20
2023-02-06T05:51:50.152Z,4.20
2023-02-06T05:54:18.833Z,4.20
2023-02-06T05:56:46.815Z,4.20
2023-02-06T05:59:14.926Z,4.10
2023-02-06T06:01:43.074Z,4.10
2023-02-06T06:04:11.041Z,4.10
2023-02-06T06:06:39.185Z,4.10
2023-02-06T06:09:07.535Z,4.10
2023-02-06T06:11:35.380Z,4.20
2023-02-06T06:14:03.789Z,4.20
2023-02-06T06:16:31.864Z,4.20
2023-02-06T06:18:59.847Z,4.20
2023-02-06T06:21:27.849Z,4.20
2023-02-06T06:23:55.995Z,4.20
2023-02-06T06:26:23.865Z,4.20
2023-02-06T06:28:51.946Z,4.20
2023-02-06T06:31:19.940Z,4.20
2023-02-06T06:33:48.024Z,4.20
2023-02-06T06:36:16.076Z,4.20
2023-02-06T06:38:43.966Z,4.20
2023-02-06T06:41:11.955Z,4.20
2023-02-06T06:43:40.117Z,4.30
2023-02-06T06:46:08.363Z,4.30
2023-02-06T06:48:38.438Z,4.30
2023-02-06T06:51:06.766Z,4.30
2023-02-06T06:53:34.970Z,4.30
2023-02-06T06:56:04.135Z,4.30
2023-02-06T06:58:32.513Z,4.30
2023-02-06T07:01:00.663Z,4.30
2023-02-06T07:03:28.609Z,4.30
2023-02-06T07:05:56.691Z,4.30
2023-02-06T07:08:24.584Z,4.30
2023-02-06T07:10:52.659Z,4.30
2023-02-06T07:13:20.542Z,4.40
2023-02-06T07:15:48.863Z,4.40
2023-02-06T07:18:16.978Z,4.40
2023-02-06T07:20:45.109Z,4.50
2023-02-06T07:23:13.077Z,4.50
2023-02-06T07:25:41.053Z,4.50
2023-02-06T07:28:09.268Z,4.50
2023-02-06T07:30:37.222Z,4.50
2023-02-06T07:33:05.570Z,4.50
2023-02-06T07:35:33.811Z,4.50
2023-02-06T07:38:01.953Z,4.60
2023-02-06T07:40:43.966Z,4.60
2023-02-06T07:43:12.882Z,4.60
2023-02-06T07:45:40.859Z,4.70
2023-02-06T07:48:08.947Z,4.70
2023-02-06T07:50:37.235Z,4.80
2023-02-06T07:53:05.280Z,4.80
2023-02-06T07:55:35.607Z,4.80
2023-02-06T07:58:04.432Z,4.90
2023-02-06T08:00:32.307Z,4.90
2023-02-06T08:03:00.156Z,4.90
2023-02-06T08:05:28.099Z,4.90
2023-02-06T08:07:56.052Z,4.90
2023-02-06T08:10:24.474Z,5.00
2023-02-06T08:12:52.433Z,5.00
2023-02-06T08:15:20.338Z,5.00
2023-02-06T08:17:48.697Z,5.00
2023-02-06T08:20:16.705Z,5.10
2023-02-06T08:22:44.779Z,5.10
2023-02-06T08:25:12.638Z,5.10
2023-02-06T08:27:40.779Z,5.10
2023-02-06T08:30:08.992Z,5.10
2023-02-06T08:32:37.032Z,5.10
2023-02-06T08:35:06.282Z,5.20
2023-02-06T08:37:34.230Z,5.20
2023-02-06T08:40:02.150Z,5.20
2023-02-06T08:42:30.142Z,5.20
2023-02-06T08:44:58.149Z,5.30
2023-02-06T08:47:26.191Z,5.30
2023-02-06T08:49:55.125Z,5.30
2023-02-06T08:52:23.681Z,5.40
2023-02-06T08:54:52.418Z,5.50
2023-02-06T08:57:20.747Z,5.60
2023-02-06T08:59:50.025Z,5.70
2023-02-06T09:02:18.043Z,5.70
2023-02-06T09:04:46.078Z,5.80
2023-02-06T09:07:16.992Z,5.90
2023-02-06T09:09:45.163Z,5.90
2023-02-06T09:12:13.319Z,6.00
2023-02-06T09:14:41.413Z,6.00
2023-02-06T09:17:09.311Z,6.00
2023-02-06T09:19:37.378Z,6.10
2023-02-06T09:22:07.144Z,6.10
2023-02-06T09:24:35.269Z,6.10
2023-02-06T09:27:03.257Z,6.10
2023-02-06T09:29:34.781Z,6.10
2023-02-06T09:32:02.854Z,6.10
2023-02-06T09:34:30.931Z,6.20
2023-02-06T09:36:58.901Z,6.20
2023-02-06T09:39:26.849Z,6.20
2023-02-06T09:42:06.911Z,6.30
2023-02-06T09:44:37.271Z,6.30
2023-02-06T09:47:10.474Z,6.40
2023-02-06T09:49:48.356Z,6.50
2023-02-06T09:52:35.138Z,6.70
2023-02-06T09:55:12.264Z,6.80
2023-02-06T09:57:55.207Z,7.00
2023-02-06T10:00:35.705Z,7.20
2023-02-06T10:03:12.231Z,7.30
2023-02-06T10:05:47.480Z,7.40
2023-02-06T10:08:15.385Z,7.50
2023-02-06T10:11:06.738Z,7.60
2023-02-06T10:13:58.916Z,7.90
2023-02-06T10:16:46.083Z,8.20
2023-02-06T10:19:18.224Z,8.30
2023-02-06T10:21:51.136Z,8.30
2023-02-06T10:24:43.139Z,8.20
2023-02-06T10:27:12.570Z,8.20
2023-02-06T10:29:41.100Z,8.20
2023-02-06T10:32:15.453Z,8.20
2023-02-06T10:34:43.406Z,8.20
2023-02-06T10:37:17.508Z,8.10
2023-02-06T10:39:58.631Z,8.20
2023-02-06T10:42:42.280Z,8.20
2023-02-06T10:45:20.628Z,8.10
2023-02-06T10:47:57.780Z,8.00
2023-02-06T10:50:52.192Z,7.90
2023-02-06T10:53:21.850Z,7.90
2023-02-06T10:55:53.205Z,8.10
2023-02-06T10:58:27.506Z,8.20
2023-02-06T11:00:56.436Z,8.30
2023-02-06T11:03:26.344Z,8.30
2023-02-06T11:05:54.909Z,8.30
2023-02-06T11:08:28.740Z,8.30
2023-02-06T11:10:57.302Z,8.30
2023-02-06T11:13:29.963Z,8.20
2023-02-06T11:16:03.144Z,8.10
2023-02-06T11:18:33.964Z,8.10
2023-02-06T11:21:03.052Z,8.10
2023-02-06T11:23:32.251Z,8.00
2023-02-06T11:26:00.831Z,8.00
2023-02-06T11:28:29.484Z,8.00
2023-02-06T11:30:58.992Z,8.10
2023-02-06T11:33:33.900Z,8.30
2023-02-06T11:36:04.725Z,8.40
2023-02-06T11:38:33.448Z,8.50
2023-02-06T11:41:02.834Z,8.60
2023-02-06T11:43:46.677Z,8.60
2023-02-06T11:46:17.663Z,8.60
2023-02-06T11:49:01.366Z,8.60
2023-02-06T11:51:47.948Z,8.60
2023-02-06T11:54:24.404Z,8.50
2023-02-06T11:57:15.796Z,8.40
2023-02-06T11:59:52.166Z,8.40
2023-02-06T12:02:28.469Z,8.30
2023-02-06T12:05:05.659Z,8.10
2023-02-06T12:07:39.530Z,8.00
2023-02-06T12:10:15.722Z,7.90
2023-02-06T12:12:47.314Z,7.90
2023-02-06T12:15:44.851Z,7.70
2023-02-06T12:18:23.419Z,7.70
2023-02-06T12:21:02.300Z,7.70
2023-02-06T12:23:59.487Z,7.60
2023-02-06T12:26:32.145Z,7.60
2023-02-06T12:29:07.413Z,7.60
2023-02-06T12:31:35.738Z,7.50
2023-02-06T12:34:10.316Z,7.50
2023-02-06T12:36:51.279Z,7.50
2023-02-06T12:39:20.626Z,7.50
2023-02-06T12:42:06.855Z,7.40
2023-02-06T12:44:41.416Z,7.40
2023-02-06T12:47:09.677Z,7.40
2023-02-06T12:49:42.593Z,7.30
2023-02-06T12:52:22.924Z,7.30
2023-02-06T12:55:05.913Z,7.30
2023-02-06T12:57:34.929Z,7.20
2023-02-06T13:00:09.961Z,7.20
2023-02-06T13:02:57.050Z,7.20
2023-02-06T13:05:36.629Z,7.20
2023-02-06T13:08:16.496Z,7.10
2023-02-06T13:10:44.969Z,7.10
2023-02-06T13:13:42.562Z,7.00
2023-02-06T13:16:10.785Z,6.90
2023-02-06T13:18:41.987Z,6.80
2023-02-06T13:21:35.512Z,6.80
2023-02-06T13:24:04.917Z,6.70
2023-02-06T13:27:02.172Z,6.70
2023-02-06T13:29:37.923Z,6.70
2023-02-06T13:32:23.003Z,6.60
2023-02-06T13:34:51.012Z,6.60
2023-02-06T13:37:40.450Z,6.50
2023-02-06T13:40:23.804Z,6.50
2023-02-06T13:42:54.864Z,6.50
2023-02-06T13:45:24.927Z,6.50
2023-02-06T13:48:02.090Z,6.40
2023-02-06T13:50:53.633Z,6.40
2023-02-06T13:53:27.646Z,6.40
2023-02-06T13:56:01.044Z,6.40
2023-02-06T13:58:28.958Z,6.40
2023-02-06T14:00:57.001Z,6.30
2023-02-06T14:03:32.448Z,6.30
2023-02-06T14:06:00.655Z,6.30
2023-02-06T14:08:43.953Z,6.20
2023-02-06T14:11:42.888Z,6.20
2023-02-06T14:14:25.161Z,6.20
2023-02-06T14:16:59.333Z,6.10
2023-02-06T14:19:47.009Z,6.10
2023-02-06T14:22:33.654Z,6.00
2023-02-06T14:25:04.918Z,6.00
2023-02-06T14:27:38.997Z,6.00
2023-02-06T14:30:27.700Z,5.90
2023-02-06T14:33:07.890Z,5.90
2023-02-06T14:35:59.741Z,5.80
2023-02-06T14:38:42.748Z,5.80
2023-02-06T14:41:11.125Z,5.80
2023-02-06T14:43:40.806Z,5.80
2023-02-06T14:46:12.651Z,5.80
2023-02-06T14:48:47.736Z,5.80
2023-02-06T14:51:24.649Z,5.80
2023-02-06T14:53:55.074Z,5.90
2023-02-06T14:56:28.643Z,5.90
2023-02-06T14:58:56.807Z,5.90
2023-02-06T15:01:27.950Z,5.90
2023-02-06T15:04:10.579Z,5.90
2023-02-06T15:06:39.798Z,5.90
2023-02-06T15:09:07.918Z,5.90
2023-02-06T15:11:35.876Z,5.90
2023-02-06T15:14:06.114Z,5.90
2023-02-06T15:16:50.111Z,5.90
2023-02-06T15:19:20.338Z,5.80
2023-02-06T15:21:48.721Z,5.80
2023-02-06T15:24:22.770Z,5.70
2023-02-06T15:26:57.904Z,5.70
2023-02-06T15:29:29.777Z,5.60
2023-02-06T15:32:01.836Z,5.60
2023-02-06T15:34:30.031Z,5.50
2023-02-06T15:36:58.203Z,5.50
2023-02-06T15:39:26.383Z,5.50
2023-02-06T15:41:54.510Z,5.50
2023-02-06T15:44:22.488Z,5.40
2023-02-06T15:46:51.393Z,5.50
2023-02-06T15:49:32.106Z,5.50
2023-02-06T15:52:00.188Z,5.50
2023-02-06T15:54:30.717Z,5.50
2023-02-06T15:57:05.050Z,5.50
2023-02-06T15:59:34.767Z,5.50
2023-02-06T16:02:04.431Z,5.50
2023-02-06T16:04:36.952Z,5.50
2023-02-06T16:07:19.845Z,5.50
2023-02-06T16:09:55.276Z,5.50
2023-02-06T16:12:23.825Z,5.50
2023-02-06T16:14:54.776Z,5.50
2023-02-06T16:17:26.837Z,5.50
2023-02-06T16:20:00.429Z,5.50
2023-02-06T16:22:30.510Z,5.40
2023-02-06T16:25:13.782Z,5.40
2023-02-06T16:27:46.191Z,5.40
2023-02-06T16:30:28.794Z,5.30
2023-02-06T16:32:57.851Z,5.30
2023-02-06T16:35:25.857Z,5.30
2023-02-06T16:37:54.720Z,5.20
2023-02-06T16:40:22.687Z,5.20
2023-02-06T16:42:50.626Z,5.20
2023-02-06T16:45:20.300Z,5.30
2023-02-06T16:47:48.832Z,5.30
2023-02-06T16:50:16.870Z,5.30
2023-02-06T16:52:49.659Z,5.30
2023-02-06T16:55:25.136Z,5.30
2023-02-06T16:57:54.611Z,5.30
2023-02-06T17:00:24.555Z,5.30
2023-02-06T17:02:52.959Z,5.30
2023-02-06T17:05:22.301Z,5.30
2023-02-06T17:07:51.076Z,5.30
2023-02-06T17:10:20.360Z,5.30
2023-02-06T17:12:48.538Z,5.30
2023-02-06T17:15:18.198Z,5.20
2023-02-06T17:17:46.482Z,5.20
2023-02-06T17:20:34.330Z,5.20
2023-02-06T17:23:03.136Z,5.10
2023-02-06T17:25:31.440Z,5.20
2023-02-06T17:27:59.651Z,5.10
2023-02-06T17:30:27.794Z,5.10
2023-02-06T17:32:56.773Z,5.10
2023-02-06T17:35:24.692Z,5.10
2023-02-06T17:37:52.996Z,5.20
2023-02-06T17:40:22.665Z,5.20
2023-02-06T17:42:50.789Z,5.20
2023-02-06T17:45:19.106Z,5.20
2023-02-06T17:47:47.221Z,5.20
2023-02-06T17:50:16.472Z,5.20
2023-02-06T17:52:44.391Z,5.20
2023-02-06T17:55:12.666Z,5.10
2023-02-06T17:57:41.117Z,5.10
2023-02-06T18:00:12.338Z,5.10
2023-02-06T18:02:40.679Z,5.10
2023-02-06T18:05:10.402Z,5.00
2023-02-06T18:07:38.992Z,5.00
2023-02-06T18:10:07.473Z,5.00
2023-02-06T18:12:35.564Z,5.00
2023-02-06T18:15:04.346Z,5.00
2023-02-06T18:17:32.268Z,5.10
2023-02-06T18:20:00.341Z,5.10
2023-02-06T18:22:28.460Z,5.10
2023-02-06T18:24:56.523Z,5.10
2023-02-06T18:27:24.729Z,5.10
2023-02-06T18:29:55.423Z,5.10
2023-02-06T18:32:23.553Z,5.10
2023-02-06T18:34:51.530Z,5.10
2023-02-06T18:37:19.692Z,5.00
2023-02-06T18:39:47.552Z,5.00
2023-02-06T18:42:34.123Z,5.00
2023-02-06T18:45:04.145Z,5.00
2023-02-06T18:47:32.615Z,5.00
2023-02-06T18:50:00.625Z,4.90
2023-02-06T18:52:29.365Z,4.90
2023-02-06T18:54:57.290Z,4.90
2023-02-06T18:57:25.280Z,4.90
2023-02-06T18:59:53.270Z,5.00
2023-02-06T19:02:21.377Z,5.00
2023-02-06T19:04:49.458Z,5.00
2023-02-06T19:07:17.674Z,5.00
2023-02-06T19:09:45.695Z,5.00
2023-02-06T19:12:13.644Z,4.90
2023-02-06T19:14:41.850Z,4.90
2023-02-06T19:17:09.875Z,4.90
2023-02-06T19:19:37.833Z,4.90
2023-02-06T19:22:05.884Z,4.90
2023-02-06T19:24:33.865Z,4.90
2023-02-06T19:27:02.432Z,4.90
2023-02-06T19:29:36.190Z,4.90
2023-02-06T19:32:05.066Z,4.90
2023-02-06T19:34:36.392Z,4.90
2023-02-06T19:37:05.320Z,4.90
2023-02-06T19:39:34.708Z,4.90
2023-02-06T19:42:05.097Z,4.90
2023-02-06T19:44:34.717Z,4.90
2023-02-06T19:47:03.078Z,4.90
2023-02-06T19:49:31.309Z,4.90
2023-02-06T19:51:59.586Z,4.80
2023-02-06T19:54:28.147Z,4.80
2023-02-06T19:56:56.152Z,4.80
2023-02-06T19:59:28.354Z,4.90
2023-02-06T20:02:00.698Z,4.90
2023-02-06T20:04:33.551Z,4.90
2023-02-06T20:07:02.021Z,4.90
2023-02-06T20:09:30.766Z,4.90
2023-02-06T20:11:58.907Z,4.80
2023-02-06T20:14:27.954Z,4.80
2023-02-06T20:16:56.015Z,4.80
2023-02-06T20:19:25.743Z,4.80
2023-02-06T20:21:55.147Z,4.80
2023-02-06T20:24:24.536Z,4.70
2023-02-06T20:26:55.913Z,4.80
2023-02-06T20:29:29.124Z,4.80
2023-02-06T20:31:58.750Z,4.80
2023-02-06T20:34:27.269Z,4.80
2023-02-06T20:36:55.824Z,4.80
2023-02-06T20:39:24.301Z,4.80
2023-02-06T20:41:52.766Z,4.80
2023-02-06T20:44:20.954Z,4.80
2023-02-06T20:46:48.963Z,4.80
2023-02-06T20:49:21.403Z,4.80
2023-02-06T20:51:49.788Z,4.70
2023-02-06T20:54:19.500Z,4.70
2023-02-06T20:56:47.654Z,4.70
2023-02-06T20:59:16.687Z,4.70
2023-02-06T21:01:44.801Z,4.70
2023-02-06T21:04:14.120Z,4.70
2023-02-06T21:06:42.332Z,4.70
2023-02-06T21:09:10.620Z,4.70
2023-02-06T21:11:42.920Z,4.80
2023-02-06T21:14:11.058Z,4.70
2023-02-06T21:16:40.506Z,4.80
2023-02-06T21:19:09.514Z,4.80
2023-02-06T21:21:37.843Z,4.70
2023-02-06T21:24:05.886Z,4.70
2023-02-06T21:26:34.095Z,4.70
2023-02-06T21:29:08.044Z,4.70
2023-02-06T21:31:38.396Z,4.70
2023-02-06T21:34:13.068Z,4.70
2023-02-06T21:36:41.244Z,4.70
2023-02-06T21:39:09.497Z,4.70
2023-02-06T21:41:37.496Z,4.70
2023-02-06T21:44:05.610Z,4.70
2023-02-06T21:46:33.833Z,4.70
2023-02-06T21:49:01.746Z,4.70
2023-02-06T21:51:29.926Z,4.70
2023-02-06T21:53:58.086Z,4.70
2023-02-06T21:56:27.091Z,4.80
2023-02-06T21:58:55.737Z,4.70
2023-02-06T22:01:25.146Z,4.70
2023-02-06T22:03:53.709Z,4.70
2023-02-06T22:06:21.904Z,4.60
2023-02-06T22:08:54.705Z,4.60
2023-02-06T22:11:27.411Z,4.60
2023-02-06T22:13:59.737Z,4.60
2023-02-06T22:16:28.249Z,4.60
2023-02-06T22:18:56.220Z,4.60
2023-02-06T22:21:25.484Z,4.60
2023-02-06T22:23:55.907Z,4.60
2023-02-06T22:26:24.032Z,4.70
2023-02-06T22:28:51.947Z,4.70
2023-02-06T22:31:21.270Z,4.70
2023-02-06T22:33:49.173Z,4.70
2023-02-06T22:36:19.362Z,4.70
2023-02-06T22:38:48.291Z,4.70
2023-02-06T22:41:17.029Z,4.60
2023-02-06T22:43:45.757Z,4.60
2023-02-06T22:46:25.193Z,4.60
2023-02-06T22:48:53.610Z,4.60
2023-02-06T22:51:21.840Z,4.60
2023-02-06T22:53:50.734Z,4.60
2023-02-06T22:56:32.371Z,4.60
2023-02-06T22:59:03.264Z,4.60
2023-02-06T23:01:33.442Z,4.60
2023-02-06T23:04:02.039Z,4.60
2023-02-06T23:06:30.930Z,4.60
2023-02-06T23:09:00.337Z,4.60
2023-02-06T23:11:29.082Z,4.60
2023-02-06T23:13:58.582Z,4.70
2023-02-06T23:16:27.407Z,4.60
2023-02-06T23:18:55.692Z,4.60
2023-02-06T23:21:24.959Z,4.60
2023-02-06T23:23:54.405Z,4.50
2023-02-06T23:26:22.872Z,4.50
2023-02-06T23:28:50.979Z,4.50
2023-02-06T23:31:19.341Z,4.60
2023-02-06T23:33:47.535Z,4.50
2023-02-06T23:36:17.350Z,4.60
2023-02-06T23:38:45.645Z,4.50
2023-02-06T23:41:15.385Z,4.50
2023-02-06T23:43:43.675Z,4.60
2023-02-06T23:46:12.789Z,4.60
2023-02-06T23:48:40.978Z,4.60
2023-02-06T23:51:09.131Z,4.60
2023-02-06T23:53:37.017Z,4.60
2023-02-06T23:56:12.418Z,4.50
2023-02-06T23:58:40.985Z,4.50
